createdAt,value
2019-03-11T00:00:09.774Z,93.39
2019-03-11T00:01:09.735Z,93.49
2019-03-11T00:02:09.727Z,93.70
2019-03-11T00:03:09.725Z,93.18
2019-03-11T00:04:10.658Z,93.80
2019-03-11T00:05:09.715Z,93.39
2019-03-11T00:06:09.677Z,93.91
2019-03-11T00:07:09.674Z,93.45
2019-03-11T00:08:09.674Z,93.70
2019-03-11T00:09:09.685Z,93.49
2019-03-11T00:10:09.728Z,93.14
2019-03-11T00:11:09.632Z,93.29
2019-03-11T00:12:09.671Z,93.39
2019-03-11T00:13:09.622Z,93.49
2019-03-11T00:14:09.605Z,93.49
2019-03-11T00:15:09.591Z,93.80
2019-03-11T00:16:09.595Z,93.70
2019-03-11T00:17:09.573Z,93.60
2019-03-11T00:18:09.605Z,93.80
2019-03-11T00:19:09.552Z,93.54
2019-03-11T00:20:09.550Z,93.95
2019-03-11T00:21:09.571Z,93.80
2019-03-11T00:22:09.526Z,93.18
2019-03-11T00:23:09.524Z,93.23
2019-03-11T00:24:10.305Z,93.43
2019-03-11T00:25:09.482Z,93.49
2019-03-11T00:26:09.487Z,92.91
2019-03-11T00:27:09.470Z,92.91
2019-03-11T00:28:09.465Z,93.01
2019-03-11T00:29:09.430Z,92.70
2019-03-11T00:30:09.490Z,93.01
2019-03-11T00:31:09.427Z,93.01
2019-03-11T00:32:09.435Z,93.49
2019-03-11T00:33:09.403Z,92.86
2019-03-11T00:34:09.403Z,92.80
2019-03-11T00:35:09.371Z,93.39
2019-03-11T00:36:09.361Z,92.86
2019-03-11T00:37:09.379Z,93.29
2019-03-11T00:38:09.368Z,93.07
2019-03-11T00:39:09.364Z,92.80
2019-03-11T00:40:09.347Z,93.01
2019-03-11T00:41:09.316Z,92.91
2019-03-11T00:42:09.315Z,92.86
2019-03-11T00:43:09.370Z,93.23
2019-03-11T00:44:09.277Z,93.23
2019-03-11T00:45:09.403Z,93.39
2019-03-11T00:46:09.269Z,92.66
2019-03-11T00:47:09.238Z,93.23
2019-03-11T00:48:09.390Z,93.12
2019-03-11T00:49:09.234Z,92.70
2019-03-11T00:50:09.213Z,92.45
2019-03-11T00:51:09.240Z,92.29
2019-03-11T00:52:09.189Z,92.03
2019-03-11T00:53:09.239Z,92.91
2019-03-11T00:54:09.174Z,92.14
2019-03-11T00:55:09.229Z,91.97
2019-03-11T00:56:10.079Z,92.03
2019-03-11T00:57:09.162Z,92.14
2019-03-11T00:58:09.416Z,92.14
2019-03-11T00:59:09.117Z,91.72
2019-03-11T01:00:09.109Z,91.83
2019-03-11T01:01:09.106Z,91.72
2019-03-11T01:02:09.091Z,91.72
2019-03-11T01:03:09.091Z,91.93
2019-03-11T01:04:09.101Z,91.77
2019-03-11T01:05:09.115Z,91.93
2019-03-11T01:06:09.041Z,91.56
2019-03-11T01:07:09.038Z,91.41
2019-03-11T01:08:09.057Z,91.87
2019-03-11T01:09:09.062Z,91.66
2019-03-11T01:10:08.996Z,91.20
2019-03-11T01:11:08.984Z,91.35
2019-03-11T01:12:08.982Z,91.77
2019-03-11T01:13:08.994Z,92.03
2019-03-11T01:14:08.968Z,91.31
2019-03-11T01:15:08.963Z,91.31
2019-03-11T01:16:08.937Z,91.10
2019-03-11T01:17:08.925Z,91.31
2019-03-11T01:18:08.918Z,91.35
2019-03-11T01:19:08.944Z,91.20
2019-03-11T01:20:08.898Z,91.52
2019-03-11T01:21:08.880Z,91.10
2019-03-11T01:22:08.920Z,90.58
2019-03-11T01:23:08.924Z,90.79
2019-03-11T01:24:08.868Z,90.89
2019-03-11T01:25:08.840Z,90.69
2019-03-11T01:26:08.947Z,91.00
2019-03-11T01:27:08.810Z,90.89
2019-03-11T01:28:08.803Z,91.35
2019-03-11T01:29:08.818Z,91.10
2019-03-11T01:30:08.876Z,91.00
2019-03-11T01:31:08.778Z,91.31
2019-03-11T01:32:08.776Z,91.41
2019-03-11T01:33:08.752Z,91.31
2019-03-11T01:34:08.774Z,90.75
2019-03-11T01:35:08.739Z,90.79
2019-03-11T01:36:08.729Z,90.69
2019-03-11T01:37:08.771Z,91.35
2019-03-11T01:38:08.749Z,91.41
2019-03-11T01:39:08.777Z,91.52
2019-03-11T01:40:08.679Z,91.31
2019-03-11T01:41:08.666Z,90.72
2019-03-11T01:42:08.674Z,91.46
2019-03-11T01:43:08.681Z,91.46
2019-03-11T01:44:17.028Z,90.83
2019-03-11T01:45:08.611Z,90.69
2019-03-11T01:46:08.619Z,90.79
2019-03-11T01:47:08.591Z,91.10
2019-03-11T01:48:08.594Z,91.10
2019-03-11T01:49:08.568Z,90.79
2019-03-11T01:50:08.580Z,90.89
2019-03-11T01:51:08.547Z,90.69
2019-03-11T01:52:08.554Z,90.58
2019-03-11T01:53:08.536Z,91.10
2019-03-11T01:54:08.570Z,91.10
2019-03-11T01:55:08.529Z,91.00
2019-03-11T01:56:08.497Z,90.69
2019-03-11T01:57:08.483Z,90.47
2019-03-11T01:58:08.523Z,91.10
2019-03-11T01:59:08.470Z,90.89
2019-03-11T02:00:08.502Z,91.00
2019-03-11T02:01:08.450Z,90.79
2019-03-11T02:02:08.432Z,91.10
2019-03-11T02:03:08.420Z,90.89
2019-03-11T02:04:08.414Z,91.10
2019-03-11T02:05:08.424Z,90.69
2019-03-11T02:06:08.384Z,90.72
2019-03-11T02:07:08.391Z,90.79
2019-03-11T02:08:08.379Z,90.69
2019-03-11T02:09:08.387Z,91.00
2019-03-11T02:10:08.347Z,90.79
2019-03-11T02:11:08.352Z,90.58
2019-03-11T02:12:08.323Z,90.69
2019-03-11T02:13:08.316Z,90.89
2019-03-11T02:14:08.321Z,91.10
2019-03-11T02:15:08.300Z,91.20
2019-03-11T02:16:08.292Z,91.10
2019-03-11T02:17:08.268Z,91.10
2019-03-11T02:18:08.262Z,90.47
2019-03-11T02:19:08.263Z,90.26
2019-03-11T02:20:08.253Z,91.10
2019-03-11T02:21:08.245Z,91.25
2019-03-11T02:22:08.223Z,91.04
2019-03-11T02:23:08.218Z,91.31
2019-03-11T02:24:08.196Z,91.66
2019-03-11T02:25:08.248Z,91.46
2019-03-11T02:26:08.202Z,91.52
2019-03-11T02:27:08.261Z,91.04
2019-03-11T02:28:08.165Z,91.56
2019-03-11T02:29:08.138Z,91.35
2019-03-11T02:30:08.142Z,91.31
2019-03-11T02:31:08.178Z,91.41
2019-03-11T02:32:08.108Z,90.64
2019-03-11T02:33:08.115Z,90.69
2019-03-11T02:34:08.104Z,90.37
2019-03-11T02:35:08.082Z,91.00
2019-03-11T02:36:08.082Z,90.79
2019-03-11T02:37:08.060Z,90.79
2019-03-11T02:38:08.051Z,90.93
2019-03-11T02:39:08.045Z,91.46
2019-03-11T02:40:08.047Z,91.25
2019-03-11T02:41:08.048Z,91.97
2019-03-11T02:42:08.030Z,92.33
2019-03-11T02:43:07.992Z,92.22
2019-03-11T02:44:08.034Z,92.29
2019-03-11T02:45:07.974Z,92.80
2019-03-11T02:46:07.997Z,92.43
2019-03-11T02:47:07.944Z,92.33
2019-03-11T02:48:07.950Z,92.74
2019-03-11T02:49:07.930Z,93.16
2019-03-11T02:50:07.920Z,93.52
2019-03-11T02:51:07.921Z,93.16
2019-03-11T02:52:07.908Z,93.79
2019-03-11T02:53:07.889Z,93.73
2019-03-11T02:54:07.889Z,93.58
2019-03-11T02:55:07.966Z,93.68
2019-03-11T02:56:07.890Z,93.99
2019-03-11T02:57:07.885Z,92.74
2019-03-11T02:58:07.834Z,92.95
2019-03-11T02:59:07.834Z,92.64
2019-03-11T03:00:07.822Z,92.89
2019-03-11T03:01:07.894Z,93.41
2019-03-11T03:02:07.869Z,93.52
2019-03-11T03:03:07.795Z,93.73
2019-03-11T03:04:07.767Z,93.93
2019-03-11T03:05:07.759Z,93.62
2019-03-11T03:06:07.770Z,93.52
2019-03-11T03:07:07.749Z,93.83
2019-03-11T03:08:07.752Z,93.62
2019-03-11T03:09:07.722Z,93.41
2019-03-11T03:10:07.708Z,93.58
2019-03-11T03:11:07.712Z,93.52
2019-03-11T03:12:07.691Z,93.62
2019-03-11T03:13:07.681Z,93.83
2019-03-11T03:14:07.678Z,93.58
2019-03-11T03:15:07.679Z,93.48
2019-03-11T03:16:07.729Z,93.68
2019-03-11T03:17:07.644Z,94.04
2019-03-11T03:18:07.625Z,94.24
2019-03-11T03:19:07.621Z,94.45
2019-03-11T03:20:07.596Z,94.14
2019-03-11T03:21:07.628Z,94.49
2019-03-11T03:22:07.576Z,94.29
2019-03-11T03:23:07.566Z,94.76
2019-03-11T03:24:07.564Z,95.18
2019-03-11T03:25:07.548Z,95.08
2019-03-11T03:26:07.568Z,95.50
2019-03-11T03:27:07.551Z,95.50
2019-03-11T03:28:07.921Z,95.29
2019-03-11T03:29:07.508Z,95.08
2019-03-11T03:30:07.509Z,95.08
2019-03-11T03:31:07.557Z,95.29
2019-03-11T03:32:07.491Z,95.50
2019-03-11T03:33:07.489Z,95.50
2019-03-11T03:34:07.460Z,95.50
2019-03-11T03:35:07.444Z,94.98
2019-03-11T03:36:07.438Z,94.87
2019-03-11T03:37:07.445Z,95.18
2019-03-11T03:38:07.420Z,95.81
2019-03-11T03:39:07.429Z,95.56
2019-03-11T03:40:07.380Z,95.35
2019-03-11T03:41:07.376Z,95.50
2019-03-11T03:42:07.423Z,95.39
2019-03-11T03:43:07.521Z,95.18
2019-03-11T03:44:07.372Z,95.56
2019-03-11T03:45:07.339Z,94.93
2019-03-11T03:46:18.536Z,95.66
2019-03-11T03:47:08.336Z,95.29
2019-03-11T03:48:07.298Z,95.56
2019-03-11T03:49:07.312Z,95.25
2019-03-11T03:50:07.302Z,95.25
2019-03-11T03:51:07.270Z,95.45
2019-03-11T03:52:07.288Z,94.76
2019-03-11T03:53:07.254Z,95.14
2019-03-11T03:54:07.231Z,94.93
2019-03-11T03:55:07.256Z,95.39
2019-03-11T03:56:07.216Z,95.29
2019-03-11T03:57:07.226Z,95.45
2019-03-11T03:58:07.221Z,95.35
2019-03-11T03:59:07.188Z,95.14
2019-03-11T04:00:07.183Z,95.56
2019-03-11T04:01:07.189Z,95.45
2019-03-11T04:02:07.159Z,94.66
2019-03-11T04:03:07.157Z,95.25
2019-03-11T04:04:07.131Z,95.14
2019-03-11T04:05:07.118Z,95.14
2019-03-11T04:06:07.114Z,94.72
2019-03-11T04:07:07.110Z,94.72
2019-03-11T04:08:07.112Z,95.03
2019-03-11T04:09:07.077Z,95.18
2019-03-11T04:10:07.065Z,95.39
2019-03-11T04:11:07.060Z,95.29
2019-03-11T04:12:07.052Z,95.50
2019-03-11T04:13:07.050Z,95.50
2019-03-11T04:14:07.023Z,95.35
2019-03-11T04:15:07.018Z,95.45
2019-03-11T04:16:07.103Z,95.45
2019-03-11T04:17:06.991Z,95.35
2019-03-11T04:18:07.002Z,95.25
2019-03-11T04:19:06.974Z,95.25
2019-03-11T04:20:06.972Z,95.14
2019-03-11T04:21:06.947Z,94.93
2019-03-11T04:22:06.933Z,94.93
2019-03-11T04:23:06.943Z,95.25
2019-03-11T04:24:06.945Z,94.93
2019-03-11T04:25:06.909Z,94.82
2019-03-11T04:26:06.899Z,95.14
2019-03-11T04:27:06.883Z,95.25
2019-03-11T04:28:06.901Z,94.72
2019-03-11T04:29:06.864Z,95.30
2019-03-11T04:30:06.854Z,95.09
2019-03-11T04:31:06.843Z,94.57
2019-03-11T04:32:06.832Z,94.78
2019-03-11T04:33:06.831Z,94.47
2019-03-11T04:34:06.810Z,94.41
2019-03-11T04:35:06.799Z,94.72
2019-03-11T04:36:06.791Z,94.72
2019-03-11T04:37:06.792Z,95.14
2019-03-11T04:38:06.804Z,94.51
2019-03-11T04:39:06.759Z,94.78
2019-03-11T04:40:06.746Z,94.51
2019-03-11T04:41:06.744Z,94.89
2019-03-11T04:42:06.725Z,94.68
2019-03-11T04:43:06.714Z,94.68
2019-03-11T04:44:07.063Z,95.09
2019-03-11T04:45:06.697Z,94.47
2019-03-11T04:46:06.680Z,94.37
2019-03-11T04:47:06.679Z,94.68
2019-03-11T04:48:06.670Z,94.37
2019-03-11T04:49:06.668Z,94.47
2019-03-11T04:50:06.644Z,94.37
2019-03-11T04:51:06.624Z,93.85
2019-03-11T04:52:06.621Z,94.37
2019-03-11T04:53:06.610Z,94.37
2019-03-11T04:54:06.636Z,94.26
2019-03-11T04:55:06.590Z,94.16
2019-03-11T04:56:06.574Z,94.37
2019-03-11T04:57:06.562Z,94.26
2019-03-11T04:58:06.563Z,94.26
2019-03-11T04:59:06.569Z,94.47
2019-03-11T05:00:06.535Z,94.37
2019-03-11T05:01:06.523Z,94.16
2019-03-11T05:02:06.523Z,93.95
2019-03-11T05:03:06.503Z,94.47
2019-03-11T05:04:06.507Z,94.06
2019-03-11T05:05:06.484Z,93.29
2019-03-11T05:06:06.475Z,93.85
2019-03-11T05:07:06.465Z,93.54
2019-03-11T05:08:06.451Z,93.54
2019-03-11T05:09:06.501Z,93.85
2019-03-11T05:10:06.427Z,93.74
2019-03-11T05:11:06.424Z,93.95
2019-03-11T05:12:06.405Z,94.16
2019-03-11T05:13:06.389Z,93.54
2019-03-11T05:14:06.405Z,93.85
2019-03-11T05:15:06.379Z,93.23
2019-03-11T05:16:06.384Z,93.70
2019-03-11T05:17:06.352Z,93.43
2019-03-11T05:18:06.377Z,93.54
2019-03-11T05:19:06.367Z,93.49
2019-03-11T05:20:06.322Z,93.80
2019-03-11T05:21:06.309Z,93.91
2019-03-11T05:22:06.319Z,93.33
2019-03-11T05:23:06.291Z,93.80
2019-03-11T05:24:06.899Z,93.39
2019-03-11T05:25:06.269Z,93.49
2019-03-11T05:26:06.261Z,93.07
2019-03-11T05:27:06.252Z,93.07
2019-03-11T05:28:06.230Z,93.49
2019-03-11T05:29:06.226Z,93.49
2019-03-11T05:30:06.228Z,93.49
2019-03-11T05:31:06.204Z,93.49
2019-03-11T05:32:06.209Z,93.70
2019-03-11T05:33:06.183Z,93.70
2019-03-11T05:34:06.174Z,93.49
2019-03-11T05:35:06.192Z,93.07
2019-03-11T05:36:06.210Z,93.07
2019-03-11T05:37:06.133Z,93.29
2019-03-11T05:38:06.131Z,92.76
2019-03-11T05:39:06.114Z,92.66
2019-03-11T05:40:06.155Z,93.18
2019-03-11T05:41:08.549Z,92.24
2019-03-11T05:42:06.092Z,92.35
2019-03-11T05:43:06.075Z,92.35
2019-03-11T05:44:06.065Z,92.24
2019-03-11T05:45:06.053Z,91.93
2019-03-11T05:46:06.067Z,91.83
2019-03-11T05:47:06.031Z,91.72
2019-03-11T05:48:06.026Z,91.93
2019-03-11T05:49:06.013Z,91.89
2019-03-11T05:50:06.001Z,91.89
2019-03-11T05:51:06.093Z,91.37
2019-03-11T05:52:05.978Z,90.95
2019-03-11T05:53:05.984Z,90.85
2019-03-11T05:54:05.965Z,90.64
2019-03-11T05:55:05.950Z,91.16
2019-03-11T05:56:05.957Z,91.37
2019-03-11T05:57:05.927Z,91.27
2019-03-11T05:58:05.957Z,90.75
2019-03-11T05:59:05.910Z,90.12
2019-03-11T06:00:05.898Z,89.18
2019-03-11T06:01:05.913Z,89.18
2019-03-11T06:02:05.865Z,89.08
2019-03-11T06:03:05.887Z,89.39
2019-03-11T06:04:05.849Z,89.18
2019-03-11T06:05:05.841Z,89.39
2019-03-11T06:06:05.859Z,89.18
2019-03-11T06:07:05.837Z,89.70
2019-03-11T06:08:05.829Z,89.39
2019-03-11T06:09:05.797Z,89.46
2019-03-11T06:10:05.787Z,89.08
2019-03-11T06:11:06.019Z,89.08
2019-03-11T06:12:06.007Z,89.08
2019-03-11T06:13:05.748Z,89.08
2019-03-11T06:14:05.816Z,88.77
2019-03-11T06:15:05.730Z,87.52
2019-03-11T06:16:05.726Z,87.63
2019-03-11T06:17:05.779Z,88.00
2019-03-11T06:18:05.697Z,88.84
2019-03-11T06:19:05.687Z,88.87
2019-03-11T06:20:06.327Z,87.90
2019-03-11T06:21:05.695Z,87.59
2019-03-11T06:22:05.673Z,87.48
2019-03-11T06:23:05.647Z,87.90
2019-03-11T06:24:05.641Z,88.10
2019-03-11T06:25:05.636Z,87.48
2019-03-11T06:26:05.618Z,87.69
2019-03-11T06:27:05.624Z,87.79
2019-03-11T06:28:05.602Z,88.67
2019-03-11T06:29:05.585Z,87.94
2019-03-11T06:30:08.074Z,88.25
2019-03-11T06:31:05.557Z,88.25
2019-03-11T06:32:05.579Z,88.15
2019-03-11T06:33:05.545Z,87.79
2019-03-11T06:34:05.531Z,87.84
2019-03-11T06:35:05.525Z,87.79
2019-03-11T06:36:05.508Z,87.42
2019-03-11T06:37:05.491Z,87.90
2019-03-11T06:38:05.505Z,87.79
2019-03-11T06:39:06.285Z,87.84
2019-03-11T06:40:05.482Z,88.10
2019-03-11T06:41:05.453Z,87.79
2019-03-11T06:42:05.468Z,87.90
2019-03-11T06:43:05.457Z,87.79
2019-03-11T06:44:05.418Z,87.69
2019-03-11T06:45:05.413Z,87.48
2019-03-11T06:46:05.517Z,87.90
2019-03-11T06:47:05.407Z,88.10
2019-03-11T06:48:05.397Z,88.31
2019-03-11T06:49:05.373Z,87.48
2019-03-11T06:50:05.360Z,87.07
2019-03-11T06:51:05.351Z,87.07
2019-03-11T06:52:05.976Z,87.79
2019-03-11T06:53:05.343Z,87.11
2019-03-11T06:54:05.321Z,88.15
2019-03-11T06:55:05.369Z,87.84
2019-03-11T06:56:05.289Z,87.59
2019-03-11T06:57:05.283Z,88.21
2019-03-11T06:58:05.299Z,86.96
2019-03-11T06:59:05.261Z,87.07
2019-03-11T07:00:05.249Z,87.07
2019-03-11T07:01:05.239Z,87.17
2019-03-11T07:02:05.224Z,86.96
2019-03-11T07:03:05.236Z,86.65
2019-03-11T07:04:05.239Z,87.07
2019-03-11T07:05:05.206Z,86.96
2019-03-11T07:06:05.205Z,86.55
2019-03-11T07:07:05.170Z,86.65
2019-03-11T07:08:05.183Z,86.90
2019-03-11T07:09:05.233Z,86.80
2019-03-11T07:10:05.183Z,87.21
2019-03-11T07:11:05.193Z,86.86
2019-03-11T07:12:05.138Z,87.07
2019-03-11T07:13:05.173Z,87.11
2019-03-11T07:14:05.117Z,87.11
2019-03-11T07:15:05.133Z,87.32
2019-03-11T07:16:05.096Z,87.01
2019-03-11T07:17:05.088Z,87.21
2019-03-11T07:18:05.076Z,87.11
2019-03-11T07:19:05.093Z,86.76
2019-03-11T07:20:05.057Z,87.07
2019-03-11T07:21:05.068Z,86.65
2019-03-11T07:22:05.073Z,86.55
2019-03-11T07:23:05.168Z,86.80
2019-03-11T07:24:04.992Z,86.65
2019-03-11T07:25:05.013Z,86.82
2019-03-11T07:26:04.987Z,86.41
2019-03-11T07:27:05.014Z,86.51
2019-03-11T07:28:04.965Z,86.09
2019-03-11T07:29:04.938Z,85.78
2019-03-11T07:30:04.926Z,85.47
2019-03-11T07:31:04.919Z,85.26
2019-03-11T07:32:04.923Z,85.53
2019-03-11T07:33:07.079Z,85.95
2019-03-11T07:34:04.974Z,85.64
2019-03-11T07:35:08.721Z,85.85
2019-03-11T07:36:04.916Z,85.53
2019-03-11T07:37:04.966Z,85.74
2019-03-11T07:38:06.542Z,85.22
2019-03-11T07:39:04.830Z,85.74
2019-03-11T07:40:04.816Z,85.33
2019-03-11T07:41:04.807Z,85.53
2019-03-11T07:42:04.797Z,85.22
2019-03-11T07:43:04.863Z,85.71
2019-03-11T07:44:04.922Z,84.91
2019-03-11T07:45:04.787Z,84.56
2019-03-11T07:46:04.760Z,84.88
2019-03-11T07:47:04.745Z,84.46
2019-03-11T07:48:04.805Z,84.25
2019-03-11T07:49:04.877Z,84.25
2019-03-11T07:50:04.762Z,84.46
2019-03-11T07:51:04.707Z,84.52
2019-03-11T07:52:04.705Z,84.00
2019-03-11T07:53:04.734Z,83.38
2019-03-11T07:54:04.837Z,82.97
2019-03-11T07:55:06.745Z,83.38
2019-03-11T07:57:05.885Z,83.42
2019-03-11T07:59:35.751Z,83.42
2019-03-11T08:00:35.721Z,83.53
2019-03-11T08:01:14.715Z,83.94
2019-03-11T08:02:14.707Z,83.11
2019-03-11T08:03:14.695Z,83.73
2019-03-11T08:04:14.702Z,83.53
2019-03-11T08:05:14.665Z,83.73
2019-03-11T08:06:18.369Z,83.11
2019-03-11T08:07:14.661Z,83.42
2019-03-11T08:08:14.655Z,83.63
2019-03-11T08:09:14.647Z,84.56
2019-03-11T08:10:14.613Z,83.63
2019-03-11T08:11:14.609Z,83.63
2019-03-11T08:12:14.601Z,83.63
2019-03-11T08:13:14.604Z,83.84
2019-03-11T08:14:14.660Z,83.94
2019-03-11T08:15:14.567Z,83.63
2019-03-11T08:16:14.559Z,83.53
2019-03-11T08:17:14.555Z,83.32
2019-03-11T08:18:14.547Z,83.01
2019-03-11T08:19:14.540Z,82.90
2019-03-11T08:20:14.509Z,83.01
2019-03-11T08:21:14.502Z,83.11
2019-03-11T08:22:14.490Z,83.11
2019-03-11T08:23:14.487Z,83.01
2019-03-11T08:24:16.538Z,82.94
2019-03-11T08:25:14.457Z,82.70
2019-03-11T08:26:14.444Z,82.94
2019-03-11T08:27:14.439Z,82.73
2019-03-11T08:28:14.478Z,83.01
2019-03-11T08:29:14.469Z,83.01
2019-03-11T08:30:14.428Z,83.01
2019-03-11T08:31:14.395Z,82.53
2019-03-11T08:32:14.384Z,83.04
2019-03-11T08:33:14.375Z,83.11
2019-03-11T08:34:14.402Z,83.32
2019-03-11T08:35:14.364Z,83.01
2019-03-11T08:36:14.412Z,82.80
2019-03-11T08:37:14.363Z,82.90
2019-03-11T08:38:14.328Z,83.15
2019-03-11T08:39:14.380Z,83.04
2019-03-11T08:40:14.304Z,83.36
2019-03-11T08:41:14.296Z,83.04
2019-03-11T08:42:14.285Z,82.01
2019-03-11T08:43:14.304Z,82.39
2019-03-11T08:44:14.277Z,82.28
2019-03-11T08:45:14.244Z,82.90
2019-03-11T08:46:14.230Z,82.70
2019-03-11T08:47:14.228Z,83.01
2019-03-11T08:48:14.212Z,83.01
2019-03-11T08:49:14.216Z,83.01
2019-03-11T08:50:14.197Z,82.90
2019-03-11T08:51:14.195Z,82.90
2019-03-11T08:52:14.174Z,82.90
2019-03-11T08:53:14.165Z,82.80
2019-03-11T08:54:14.181Z,82.59
2019-03-11T08:55:14.141Z,81.35
2019-03-11T08:56:14.131Z,81.45
2019-03-11T08:57:14.113Z,81.66
2019-03-11T08:58:14.121Z,81.14
2019-03-11T08:59:14.106Z,81.56
2019-03-11T09:00:14.122Z,81.14
2019-03-11T09:01:14.126Z,81.10
2019-03-11T09:02:14.066Z,80.68
2019-03-11T09:03:14.066Z,79.96
2019-03-11T09:04:14.046Z,80.06
2019-03-11T09:05:14.058Z,80.37
2019-03-11T09:06:14.040Z,80.16
2019-03-11T09:07:14.015Z,80.79
2019-03-11T09:08:14.004Z,80.06
2019-03-11T09:09:14.007Z,79.65
2019-03-11T09:10:14.006Z,80.68
2019-03-11T09:11:13.984Z,80.68
2019-03-11T09:12:13.958Z,79.96
2019-03-11T09:13:13.953Z,80.65
2019-03-11T09:14:13.941Z,79.10
2019-03-11T09:15:13.979Z,80.06
2019-03-11T09:16:13.921Z,80.68
2019-03-11T09:17:13.910Z,80.37
2019-03-11T09:18:13.895Z,79.96
2019-03-11T09:19:13.896Z,79.75
2019-03-11T09:20:13.926Z,79.51
2019-03-11T09:21:13.859Z,79.30
2019-03-11T09:22:13.860Z,79.82
2019-03-11T09:23:13.900Z,80.13
2019-03-11T09:24:19.169Z,79.61
2019-03-11T09:25:14.849Z,79.71
2019-03-11T09:26:13.842Z,79.20
2019-03-11T09:27:13.804Z,79.71
2019-03-11T09:28:13.795Z,79.37
2019-03-11T09:29:13.788Z,78.44
2019-03-11T09:30:13.819Z,77.71
2019-03-11T09:31:13.782Z,77.50
2019-03-11T09:32:13.744Z,77.40
2019-03-11T09:33:13.750Z,77.15
2019-03-11T09:34:13.738Z,76.95
2019-03-11T09:35:13.749Z,76.40
2019-03-11T09:36:13.760Z,75.98
2019-03-11T09:37:13.699Z,76.05
2019-03-11T09:38:13.702Z,75.53
2019-03-11T09:39:13.699Z,75.84
2019-03-11T09:40:13.694Z,74.50
2019-03-11T09:41:13.692Z,74.29
2019-03-11T09:42:13.637Z,74.32
2019-03-11T09:43:13.636Z,74.63
2019-03-11T09:44:13.626Z,73.88
2019-03-11T09:45:13.657Z,73.74
2019-03-11T09:46:13.630Z,73.43
2019-03-11T09:47:13.598Z,72.71
2019-03-11T09:48:13.594Z,73.54
2019-03-11T09:49:13.574Z,73.88
2019-03-11T09:50:13.563Z,73.67
2019-03-11T09:51:13.570Z,73.36
2019-03-11T09:52:13.541Z,72.02
2019-03-11T09:53:13.528Z,73.36
2019-03-11T09:54:13.517Z,73.12
2019-03-11T09:56:14.538Z,72.02
2019-03-11T09:57:13.498Z,73.25
2019-03-11T09:58:13.486Z,73.71
2019-03-11T09:59:13.479Z,74.22
2019-03-11T10:00:13.525Z,73.81
2019-03-11T10:01:13.486Z,74.12
2019-03-11T10:02:13.452Z,74.02
2019-03-11T10:03:13.444Z,74.02
2019-03-11T10:04:13.413Z,73.81
2019-03-11T10:05:13.415Z,73.81
2019-03-11T10:06:13.388Z,73.91
2019-03-11T10:07:13.398Z,74.63
2019-03-11T10:08:13.378Z,74.29
2019-03-11T10:09:13.414Z,74.22
2019-03-11T10:10:13.347Z,74.95
2019-03-11T10:11:13.344Z,75.57
2019-03-11T10:12:13.404Z,75.78
2019-03-11T10:13:13.314Z,76.64
2019-03-11T10:14:13.312Z,76.84
2019-03-11T10:15:13.293Z,76.84
2019-03-11T10:16:13.281Z,77.61
2019-03-11T10:17:13.304Z,78.44
2019-03-11T10:18:13.258Z,78.71
2019-03-11T10:19:13.255Z,79.06
2019-03-11T10:20:13.250Z,79.06
2019-03-11T10:21:13.284Z,79.33
2019-03-11T10:22:13.244Z,79.23
2019-03-11T10:23:13.209Z,79.33
2019-03-11T10:24:13.194Z,79.02
2019-03-11T10:25:13.227Z,78.92
2019-03-11T10:26:13.188Z,79.44
2019-03-11T10:27:13.196Z,79.64
2019-03-11T10:28:13.173Z,79.85
2019-03-11T10:29:13.146Z,78.57
2019-03-11T10:30:13.143Z,77.43
2019-03-11T10:31:13.134Z,77.64
2019-03-11T10:32:13.163Z,76.88
2019-03-11T10:33:13.105Z,76.15
2019-03-11T10:34:13.092Z,76.57
2019-03-11T10:35:30.687Z,76.12
2019-03-11T10:36:14.084Z,75.09
2019-03-11T10:37:13.082Z,74.46
2019-03-11T10:38:13.070Z,74.77
2019-03-11T10:39:13.038Z,74.26
2019-03-11T10:40:13.031Z,74.43
2019-03-11T10:41:13.012Z,74.02
2019-03-11T10:42:13.047Z,73.98
2019-03-11T10:43:13.005Z,73.39
2019-03-11T10:44:12.986Z,74.22
2019-03-11T10:45:12.969Z,72.95
2019-03-11T10:46:12.957Z,74.08
2019-03-11T10:47:12.977Z,73.67
2019-03-11T10:48:13.083Z,74.46
2019-03-11T10:49:12.942Z,73.54
2019-03-11T10:50:12.923Z,73.12
2019-03-11T10:51:12.921Z,73.95
2019-03-11T10:52:12.948Z,73.43
2019-03-11T10:53:12.886Z,73.47
2019-03-11T10:54:12.885Z,74.26
2019-03-11T10:55:12.878Z,73.36
2019-03-11T10:56:12.852Z,73.67
2019-03-11T10:57:12.863Z,74.81
2019-03-11T10:58:12.864Z,73.91
2019-03-11T10:59:12.818Z,75.40
2019-03-11T11:00:12.819Z,75.60
2019-03-11T11:01:12.827Z,76.57
2019-03-11T11:02:12.809Z,77.50
2019-03-11T11:03:12.781Z,77.50
2019-03-11T11:04:12.788Z,78.12
2019-03-11T11:05:12.774Z,78.47
2019-03-11T11:06:12.755Z,79.19
2019-03-11T11:07:12.766Z,80.88
2019-03-11T11:08:12.722Z,81.61
2019-03-11T11:09:12.716Z,81.51
2019-03-11T11:10:12.708Z,80.47
2019-03-11T11:11:12.712Z,81.92
2019-03-11T11:12:12.706Z,81.44
2019-03-11T11:13:12.679Z,81.75
2019-03-11T11:14:12.675Z,81.34
2019-03-11T11:15:12.666Z,82.79
2019-03-11T11:16:12.646Z,82.06
2019-03-11T11:17:12.636Z,81.34
2019-03-11T11:18:12.644Z,81.75
2019-03-11T11:19:12.612Z,81.54
2019-03-11T11:20:12.599Z,80.82
2019-03-11T11:21:12.614Z,81.65
2019-03-11T11:22:14.084Z,82.27
2019-03-11T11:23:12.584Z,82.10
2019-03-11T11:24:12.556Z,82.93
2019-03-11T11:25:12.541Z,84.00
2019-03-11T11:26:12.574Z,84.31
2019-03-11T11:27:12.531Z,85.87
2019-03-11T11:28:12.534Z,85.71
2019-03-11T11:29:12.518Z,86.22
2019-03-11T11:30:12.516Z,86.74
2019-03-11T11:31:12.502Z,86.78
2019-03-11T11:32:12.514Z,86.95
2019-03-11T11:33:12.490Z,87.68
2019-03-11T11:34:12.458Z,87.71
2019-03-11T11:35:12.444Z,87.92
2019-03-11T11:36:12.433Z,88.59
2019-03-11T11:37:12.419Z,89.11
2019-03-11T11:38:12.442Z,90.04
2019-03-11T11:39:12.398Z,91.33
2019-03-11T11:40:12.392Z,91.28
2019-03-11T11:41:12.375Z,91.02
2019-03-11T11:42:12.371Z,91.53
2019-03-11T11:43:12.414Z,91.99
2019-03-11T11:44:12.430Z,93.03
2019-03-11T11:45:12.382Z,93.45
2019-03-11T11:46:12.337Z,92.93
2019-03-11T11:47:12.448Z,93.45
2019-03-11T11:48:12.309Z,94.01
2019-03-11T11:49:12.310Z,95.11
2019-03-11T11:50:12.299Z,94.70
2019-03-11T11:51:12.270Z,95.01
2019-03-11T11:52:12.280Z,94.65
2019-03-11T11:53:12.255Z,94.34
2019-03-11T11:54:12.260Z,93.93
2019-03-11T11:55:12.229Z,93.72
2019-03-11T11:56:12.231Z,93.99
2019-03-11T11:57:12.209Z,93.88
2019-03-11T11:58:12.206Z,93.37
2019-03-11T11:59:12.211Z,93.47
2019-03-11T12:00:12.182Z,94.30
2019-03-11T12:01:12.190Z,93.68
2019-03-11T12:02:12.160Z,94.20
2019-03-11T12:03:12.146Z,94.09
2019-03-11T12:04:13.571Z,93.57
2019-03-11T12:05:12.160Z,93.26
2019-03-11T12:06:12.114Z,93.37
2019-03-11T12:07:12.102Z,93.22
2019-03-11T12:08:12.094Z,92.69
2019-03-11T12:09:12.120Z,92.49
2019-03-11T12:10:12.092Z,92.07
2019-03-11T12:11:12.056Z,91.97
2019-03-11T12:12:12.051Z,92.80
2019-03-11T12:13:12.046Z,91.97
2019-03-11T12:14:12.195Z,91.24
2019-03-11T12:15:12.031Z,92.24
2019-03-11T12:16:12.035Z,92.86
2019-03-11T12:17:12.666Z,92.45
2019-03-11T12:18:12.062Z,92.66
2019-03-11T12:19:11.980Z,93.07
2019-03-11T12:20:11.998Z,92.61
2019-03-11T12:21:11.996Z,91.99
2019-03-11T12:22:11.990Z,92.03
2019-03-11T12:23:11.935Z,91.83
2019-03-11T12:24:11.938Z,92.20
2019-03-11T12:25:11.930Z,91.89
2019-03-11T12:26:11.936Z,91.78
2019-03-11T12:27:11.897Z,91.62
2019-03-11T12:28:12.004Z,92.24
2019-03-11T12:29:11.879Z,92.86
2019-03-11T12:30:11.873Z,92.86
2019-03-11T12:31:11.849Z,92.35
2019-03-11T12:32:11.907Z,92.24
2019-03-11T12:33:11.835Z,92.55
2019-03-11T12:34:11.820Z,92.51
2019-03-11T12:35:11.826Z,92.35
2019-03-11T12:36:11.837Z,91.72
2019-03-11T12:37:11.797Z,90.58
2019-03-11T12:38:11.793Z,91.41
2019-03-11T12:39:11.776Z,91.20
2019-03-11T12:40:11.861Z,90.58
2019-03-11T12:41:11.742Z,90.48
2019-03-11T12:42:11.741Z,90.75
2019-03-11T12:43:11.723Z,90.75
2019-03-11T12:44:11.753Z,90.64
2019-03-11T12:45:11.725Z,90.60
2019-03-11T12:46:11.694Z,90.85
2019-03-11T12:47:11.692Z,89.29
2019-03-11T12:48:11.681Z,89.09
2019-03-11T12:49:11.672Z,89.40
2019-03-11T12:50:11.693Z,89.29
2019-03-11T12:51:11.640Z,89.09
2019-03-11T12:52:11.631Z,89.40
2019-03-11T12:53:11.620Z,89.25
2019-03-11T12:54:11.619Z,89.71
2019-03-11T12:55:11.632Z,88.67